Time;durP1;ratioP1;P1;durP2;ratioP2;P2;SDS_P1;SDS_P2;PMS_P1;PMS_P2;Temp;Humidity;BMP_temperature;BMP_pressure;BME280_temperature;BME280_humidity;BME280_pressure;Samples;Min_cycle;Max_cycle;Signal;HPM_P1;HPM_P2
2021/01/19 00:00:28;;;;;;;3.03;2.70;;;2.90;99.90;;;;;;5012767;28;20201;-85
2021/01/19 00:02:54;;;;;;;4.93;3.28;;;2.80;99.90;;;;;;5012697;28;20444;-85
2021/01/19 00:05:20;;;;;;;4.70;3.42;;;2.80;99.90;;;;;;5008407;28;20287;-85
2021/01/19 00:07:47;;;;;;;5.82;3.67;;;2.80;99.90;;;;;;5011152;28;20201;-85
2021/01/19 00:10:14;;;;;;;4.68;3.28;;;2.80;99.90;;;;;;5010275;28;20205;-85
2021/01/19 00:12:40;;;;;;;4.80;3.55;;;2.80;99.90;;;;;;5012384;28;20218;-85
2021/01/19 00:15:07;;;;;;;4.57;2.70;;;2.70;99.90;;;;;;5011706;28;20229;-85
2021/01/19 00:17:33;;;;;;;5.05;3.50;;;2.80;99.90;;;;;;5010300;28;20278;-85
2021/01/19 00:20:01;;;;;;;7.97;3.25;;;2.70;99.90;;;;;;5012717;28;20201;-85
2021/01/19 00:22:28;;;;;;;5.43;3.17;;;2.70;99.90;;;;;;5006378;28;20198;-85
2021/01/19 00:24:55;;;;;;;4.28;3.33;;;2.70;99.90;;;;;;5011619;28;20563;-85
2021/01/19 00:27:22;;;;;;;6.88;2.97;;;2.70;99.90;;;;;;5012250;28;20207;-85
2021/01/19 00:29:48;;;;;;;5.20;3.00;;;2.70;99.90;;;;;;5011986;28;20205;-85
2021/01/19 00:32:14;;;;;;;4.30;2.95;;;2.70;99.90;;;;;;5012163;28;20428;-84
2021/01/19 00:34:40;;;;;;;5.90;3.13;;;2.70;99.90;;;;;;5011209;28;20227;-85
2021/01/19 00:37:07;;;;;;;3.60;3.30;;;2.60;99.90;;;;;;5011074;28;20582;-85
2021/01/19 00:39:33;;;;;;;4.82;3.53;;;2.60;99.90;;;;;;5009771;28;20320;-85
2021/01/19 00:42:00;;;;;;;2.88;2.58;;;2.60;99.90;;;;;;5011803;28;20196;-86
2021/01/19 00:44:26;;;;;;;4.60;3.20;;;2.70;99.90;;;;;;5009818;28;20231;-87
2021/01/19 00:46:52;;;;;;;6.07;3.37;;;2.70;99.90;;;;;;5009346;28;20468;-86
2021/01/19 00:49:19;;;;;;;5.27;3.80;;;2.70;99.90;;;;;;5011868;28;20448;-86
2021/01/19 00:51:45;;;;;;;4.10;2.92;;;2.70;99.90;;;;;;5011705;28;20440;-86
2021/01/19 00:54:12;;;;;;;4.20;3.33;;;2.70;99.90;;;;;;5009186;28;20260;-86
2021/01/19 00:56:41;;;;;;;6.10;3.22;;;2.60;99.90;;;;;;5010327;28;21010;-86
2021/01/19 00:59:10;;;;;;;6.10;2.80;;;2.60;99.90;;;;;;5009348;28;20240;-86
2021/01/19 01:01:44;;;;;;;5.03;3.10;;;2.60;99.90;;;;;;5009365;28;20201;-86
2021/01/19 01:04:10;;;;;;;5.30;3.10;;;2.50;99.90;;;;;;5011843;28;20244;-85
2021/01/19 01:06:37;;;;;;;6.47;3.23;;;2.40;99.90;;;;;;5008676;28;20243;-87
2021/01/19 01:09:04;;;;;;;5.03;2.73;;;2.40;99.90;;;;;;5010662;28;21011;-86
2021/01/19 01:11:37;;;;;;;4.70;3.70;;;2.40;99.90;;;;;;5008493;28;20451;-86
2021/01/19 01:14:03;;;;;;;4.93;3.22;;;2.50;99.90;;;;;;5009125;28;20243;-86
2021/01/19 01:16:31;;;;;;;4.95;3.08;;;2.50;99.90;;;;;;5011373;28;20198;-86
2021/01/19 01:18:57;;;;;;;4.75;4.15;;;2.50;99.90;;;;;;5007268;28;20269;-85
2021/01/19 01:21:24;;;;;;;5.45;3.00;;;2.50;99.90;;;;;;5011343;28;20614;-85
2021/01/19 01:23:51;;;;;;;3.63;2.85;;;2.60;99.90;;;;;;5008857;28;20224;-85
2021/01/19 01:26:20;;;;;;;3.75;2.92;;;2.60;99.90;;;;;;5010985;28;20201;-86
2021/01/19 01:28:47;;;;;;;4.35;2.95;;;2.60;99.90;;;;;;5008604;28;20295;-85
2021/01/19 01:31:17;;;;;;;7.47;2.90;;;2.60;99.90;;;;;;5009264;28;20288;-86
2021/01/19 01:33:44;;;;;;;4.83;2.87;;;2.50;99.90;;;;;;5008715;28;20224;-85
2021/01/19 01:36:10;;;;;;;2.88;2.13;;;2.50;99.90;;;;;;5010903;28;20451;-86
2021/01/19 01:38:37;;;;;;;6.00;3.58;;;2.50;99.90;;;;;;5011396;28;20563;-86
2021/01/19 01:41:03;;;;;;;4.18;2.55;;;2.50;99.90;;;;;;5010015;28;20199;-86
2021/01/19 01:43:29;;;;;;;4.13;2.85;;;2.50;99.90;;;;;;5011048;28;20205;-86
2021/01/19 01:45:55;;;;;;;4.22;2.90;;;2.50;99.90;;;;;;5008454;28;20208;-86
2021/01/19 01:48:22;;;;;;;4.97;2.90;;;2.40;99.90;;;;;;5008936;28;20661;-86
2021/01/19 01:50:49;;;;;;;3.50;2.80;;;2.40;99.90;;;;;;5008848;28;20208;-87
2021/01/19 01:53:16;;;;;;;3.47;2.72;;;2.40;99.90;;;;;;5011287;28;20221;-87
2021/01/19 01:55:42;;;;;;;5.40;2.87;;;2.40;99.90;;;;;;5008213;28;20313;-87
2021/01/19 01:58:09;;;;;;;3.97;2.67;;;2.30;99.90;;;;;;5006056;28;21039;-87
2021/01/19 02:00:35;;;;;;;3.00;2.65;;;2.30;99.90;;;;;;5011286;28;20615;-87
2021/01/19 02:03:02;;;;;;;3.05;2.70;;;2.30;99.90;;;;;;5014976;28;20235;-87
2021/01/19 02:05:28;;;;;;;5.53;3.90;;;2.20;99.90;;;;;;5014302;28;20228;-87
2021/01/19 02:08:08;;;;;;;4.60;2.92;;;2.10;99.90;;;;;;5011649;28;20251;-88
2021/01/19 02:10:52;;;;;;;6.53;3.20;;;2.10;99.90;;;;;;5013563;28;20568;-86
2021/01/19 02:13:25;;;;;;;5.05;3.08;;;2.10;99.90;;;;;;5011361;28;20519;-87
2021/01/19 02:15:58;;;;;;;4.95;2.97;;;2.10;99.90;;;;;;5013895;28;20240;-86
2021/01/19 02:18:32;;;;;;;6.07;3.28;;;2.10;99.90;;;;;;5009427;28;20198;-87
2021/01/19 02:21:15;;;;;;;4.28;3.55;;;2.10;99.90;;;;;;5014701;28;20198;-86
2021/01/19 02:23:53;;;;;;;5.82;3.38;;;2.10;99.90;;;;;;5014302;28;20200;-86
2021/01/19 02:27:02;;;;;;;3.75;3.40;;;2.10;99.90;;;;;;5010929;28;20310;-86
2021/01/19 02:29:47;;;;;;;4.57;3.38;;;2.10;99.90;;;;;;5012452;28;20198;-87
2021/01/19 02:32:23;;;;;;;5.25;3.33;;;2.10;99.90;;;;;;5012754;28;20226;-86
2021/01/19 02:34:59;;;;;;;3.45;2.80;;;2.10;99.90;;;;;;5012575;28;20221;-87
2021/01/19 02:37:30;;;;;;;5.22;2.97;;;2.20;99.90;;;;;;5014484;28;20200;-86
2021/01/19 02:40:03;;;;;;;3.33;2.92;;;2.20;99.90;;;;;;5011892;28;20196;-86
2021/01/19 02:42:36;;;;;;;3.13;2.78;;;2.30;99.90;;;;;;5010288;28;20582;-87
2021/01/19 02:45:06;;;;;;;3.17;2.83;;;2.30;99.90;;;;;;5012422;28;20221;-87
2021/01/19 02:47:33;;;;;;;6.07;3.80;;;2.30;99.90;;;;;;5010873;28;20193;-86
2021/01/19 02:50:00;;;;;;;5.40;4.70;;;2.30;99.90;;;;;;5012708;28;20259;-87
2021/01/19 02:52:27;;;;;;;4.82;3.15;;;2.40;99.90;;;;;;5012993;28;20200;-87
2021/01/19 02:54:55;;;;;;;5.55;3.47;;;2.30;99.90;;;;;;5012089;28;20236;-87
2021/01/19 02:57:37;;;;;;;7.18;3.60;;;2.30;99.90;;;;;;5012681;28;20205;-87
2021/01/19 03:00:11;;;;;;;4.63;3.20;;;2.30;99.90;;;;;;5012841;28;20670;-87
2021/01/19 03:02:40;;;;;;;3.25;2.75;;;2.40;99.90;;;;;;5012194;28;20452;-87
2021/01/19 03:05:09;;;;;;;3.42;3.10;;;2.40;99.90;;;;;;5011642;28;20221;-86
2021/01/19 03:07:38;;;;;;;4.50;3.15;;;2.40;99.90;;;;;;5012745;28;20198;-87
2021/01/19 03:10:06;;;;;;;3.20;2.80;;;2.40;99.90;;;;;;5011157;28;20208;-87
2021/01/19 03:12:33;;;;;;;5.17;3.20;;;2.40;99.90;;;;;;5011613;28;20200;-87
2021/01/19 03:15:00;;;;;;;5.45;3.50;;;2.40;99.90;;;;;;5011930;28;20579;-86
2021/01/19 03:17:26;;;;;;;4.80;3.25;;;2.40;99.90;;;;;;5012192;28;20202;-87
2021/01/19 03:19:53;;;;;;;7.03;3.38;;;2.50;99.90;;;;;;5012380;28;21135;-86
2021/01/19 03:22:19;;;;;;;4.72;3.40;;;2.50;99.90;;;;;;5012586;28;20193;-87
2021/01/19 03:24:45;;;;;;;3.58;3.17;;;2.50;99.90;;;;;;5010690;28;20238;-87
2021/01/19 03:27:11;;;;;;;3.53;3.07;;;2.50;99.90;;;;;;5012896;28;20205;-86
2021/01/19 03:29:39;;;;;;;5.15;3.00;;;2.50;99.90;;;;;;5012487;28;20448;-87
2021/01/19 03:32:06;;;;;;;5.60;3.83;;;2.50;99.90;;;;;;5011516;28;20685;-86
2021/01/19 03:34:33;;;;;;;3.75;2.83;;;2.60;99.90;;;;;;5011794;28;20484;-86
2021/01/19 03:37:00;;;;;;;7.17;3.10;;;2.60;99.90;;;;;;5012137;28;20193;-86
2021/01/19 03:39:26;;;;;;;5.82;3.22;;;2.60;99.90;;;;;;5011847;28;20446;-87
2021/01/19 03:41:52;;;;;;;4.20;3.10;;;2.60;99.90;;;;;;5012154;28;20200;-87
2021/01/19 03:44:18;;;;;;;2.97;2.63;;;2.60;99.90;;;;;;5011920;28;20210;-87
2021/01/19 03:46:44;;;;;;;3.55;3.15;;;2.60;99.90;;;;;;5009598;28;20947;-86
2021/01/19 03:49:11;;;;;;;7.40;2.88;;;2.60;99.90;;;;;;5011324;28;20201;-86
2021/01/19 03:51:37;;;;;;;3.40;3.10;;;2.60;99.90;;;;;;5011663;28;20204;-86
2021/01/19 03:54:05;;;;;;;3.13;2.67;;;2.60;99.90;;;;;;5011495;28;20485;-86
2021/01/19 03:56:31;;;;;;;4.80;2.97;;;2.60;99.90;;;;;;5010053;28;20202;-87
2021/01/19 03:58:57;;;;;;;5.23;3.10;;;2.60;99.90;;;;;;5011956;28;20196;-87
2021/01/19 04:01:23;;;;;;;5.20;2.70;;;2.70;99.90;;;;;;5010292;28;20445;-87
2021/01/19 04:03:49;;;;;;;4.40;2.75;;;2.70;99.90;;;;;;5011287;28;20467;-87
2021/01/19 04:06:16;;;;;;;3.67;2.70;;;2.70;99.90;;;;;;5011409;28;20205;-87
2021/01/19 04:08:42;;;;;;;4.43;2.67;;;2.60;99.90;;;;;;5011308;28;20706;-87
2021/01/19 04:11:09;;;;;;;4.40;2.88;;;2.60;99.90;;;;;;5011529;28;20885;-86
2021/01/19 04:13:35;;;;;;;3.83;2.80;;;2.60;99.90;;;;;;5011363;28;20221;-86
2021/01/19 04:16:02;;;;;;;3.50;2.77;;;2.60;99.90;;;;;;5011264;28;20503;-86
2021/01/19 04:18:28;;;;;;;3.87;2.60;;;2.60;99.90;;;;;;5008329;28;20452;-86
2021/01/19 04:20:55;;;;;;;5.50;2.67;;;2.60;99.90;;;;;;5011458;28;20450;-87
2021/01/19 04:23:21;;;;;;;3.87;2.83;;;2.60;99.90;;;;;;5010946;28;20448;-87
2021/01/19 04:25:49;;;;;;;4.30;2.85;;;2.50;99.90;;;;;;5010489;28;20482;-86
2021/01/19 04:28:17;;;;;;;4.13;3.17;;;2.50;99.90;;;;;;5009733;28;20265;-86
2021/01/19 04:30:44;;;;;;;4.40;2.80;;;2.40;99.90;;;;;;5009765;28;20248;-86
2021/01/19 04:33:11;;;;;;;4.78;3.03;;;2.30;99.90;;;;;;5011110;28;20485;-86
2021/01/19 04:35:37;;;;;;;4.40;2.70;;;2.20;99.90;;;;;;5010421;28;20215;-86
2021/01/19 04:38:03;;;;;;;3.17;2.43;;;2.20;99.90;;;;;;5010902;28;20857;-87
2021/01/19 04:40:30;;;;;;;6.05;2.50;;;2.20;99.90;;;;;;5010840;28;20452;-86
2021/01/19 04:42:56;;;;;;;4.35;2.83;;;2.20;99.90;;;;;;5011111;28;20687;-87
2021/01/19 04:45:23;;;;;;;3.28;2.00;;;2.10;99.90;;;;;;5010646;28;20310;-87
2021/01/19 04:47:50;;;;;;;5.13;3.03;;;2.10;99.90;;;;;;5009637;28;20250;-88
2021/01/19 04:50:16;;;;;;;7.03;2.83;;;2.00;99.90;;;;;;5009961;28;20202;-87
2021/01/19 04:52:43;;;;;;;2.50;2.22;;;2.10;99.90;;;;;;5011221;28;20327;-88
2021/01/19 04:55:11;;;;;;;6.50;3.10;;;2.10;99.90;;;;;;5010636;28;20228;-86
2021/01/19 04:57:39;;;;;;;3.42;2.75;;;2.20;99.90;;;;;;5008515;28;20197;-86
2021/01/19 05:00:09;;;;;;;13.23;3.22;;;2.30;99.90;;;;;;5010943;28;20201;-87
2021/01/19 05:03:01;;;;;;;4.03;2.67;;;2.30;99.90;;;;;;5008560;28;20237;-87
2021/01/19 05:06:03;;;;;;;4.10;3.40;;;2.20;99.90;;;;;;5009989;28;20758;-86
2021/01/19 05:08:55;;;;;;;3.13;2.33;;;2.20;99.90;;;;;;5010394;28;20442;-87
2021/01/19 05:11:24;;;;;;;7.47;2.83;;;2.20;99.90;;;;;;5009965;28;20251;-87
2021/01/19 05:13:53;;;;;;;2.92;2.67;;;2.20;99.90;;;;;;5007979;28;20256;-87
2021/01/19 05:16:20;;;;;;;5.53;3.17;;;2.20;99.90;;;;;;5009846;28;20591;-87
2021/01/19 05:18:48;;;;;;;5.85;2.90;;;2.20;99.90;;;;;;5010306;28;20200;-86
2021/01/19 05:21:15;;;;;;;7.05;4.00;;;2.20;99.90;;;;;;5009893;28;20267;-87
2021/01/19 05:23:42;;;;;;;3.20;2.90;;;2.20;99.90;;;;;;5010338;28;20207;-87
2021/01/19 05:26:09;;;;;;;3.65;2.70;;;2.10;99.90;;;;;;5009688;28;20212;-87
2021/01/19 05:28:38;;;;;;;8.63;3.28;;;2.10;99.90;;;;;;5010260;28;20204;-87
2021/01/19 05:31:06;;;;;;;4.18;2.92;;;2.10;99.90;;;;;;5007947;28;20209;-87
2021/01/19 05:33:33;;;;;;;9.07;3.47;;;2.10;99.90;;;;;;5010344;28;20360;-87
2021/01/19 05:36:08;;;;;;;3.67;2.80;;;2.10;99.90;;;;;;5007602;28;20204;-87
2021/01/19 05:38:47;;;;;;;7.43;2.90;;;2.10;99.90;;;;;;5009449;28;20660;-87
2021/01/19 05:41:31;;;;;;;6.03;3.45;;;2.20;99.90;;;;;;5008408;28;20204;-87
2021/01/19 05:44:09;;;;;;;5.65;4.15;;;2.10;99.90;;;;;;5010746;28;20251;-87
2021/01/19 05:46:40;;;;;;;4.78;2.85;;;2.10;99.90;;;;;;5009831;28;20274;-87
2021/01/19 05:49:07;;;;;;;5.80;3.15;;;2.10;99.90;;;;;;5008826;28;20214;-86
2021/01/19 05:51:36;;;;;;;2.72;2.50;;;2.10;99.90;;;;;;5011068;28;20195;-86
2021/01/19 05:54:03;;;;;;;3.35;2.78;;;2.10;99.90;;;;;;5010943;28;20706;-88
2021/01/19 05:56:29;;;;;;;5.05;3.53;;;2.10;99.90;;;;;;5010899;28;20571;-86
2021/01/19 05:58:55;;;;;;;6.10;3.10;;;2.00;99.90;;;;;;5010455;28;20197;-87
2021/01/19 06:01:29;;;;;;;5.35;2.95;;;2.00;99.90;;;;;;5008087;28;20254;-87
2021/01/19 06:03:57;;;;;;;5.53;2.95;;;2.00;99.90;;;;;;5010457;28;20302;-87
2021/01/19 06:06:25;;;;;;;4.60;3.03;;;2.00;99.90;;;;;;5011193;28;20668;-88
2021/01/19 06:08:58;;;;;;;5.07;3.42;;;1.90;99.90;;;;;;5010758;28;20291;-87
2021/01/19 06:11:25;;;;;;;3.42;3.13;;;1.90;99.90;;;;;;5008686;28;20308;-87
2021/01/19 06:13:51;;;;;;;5.05;3.15;;;1.90;99.90;;;;;;5010305;28;20224;-87
2021/01/19 06:16:21;;;;;;;5.50;2.80;;;2.00;99.90;;;;;;5009511;28;20263;-86
2021/01/19 06:18:47;;;;;;;5.88;3.30;;;2.00;99.90;;;;;;5009396;28;20203;-86
2021/01/19 06:21:26;;;;;;;6.40;4.03;;;2.00;99.90;;;;;;5010783;28;20205;-87
2021/01/19 06:23:52;;;;;;;4.30;3.20;;;1.90;99.90;;;;;;5010103;28;20224;-86
2021/01/19 06:26:19;;;;;;;4.88;3.63;;;1.90;99.90;;;;;;5006923;28;20195;-86
2021/01/19 06:28:45;;;;;;;6.88;3.70;;;1.90;99.90;;;;;;5010534;28;20204;-87
2021/01/19 06:31:12;;;;;;;5.37;3.80;;;1.90;99.90;;;;;;5010204;28;20685;-86
2021/01/19 06:33:40;;;;;;;6.28;4.00;;;1.90;99.90;;;;;;5010602;28;20542;-87
2021/01/19 06:36:08;;;;;;;5.40;3.75;;;1.90;99.90;;;;;;5009801;28;20201;-87
2021/01/19 06:38:34;;;;;;;6.93;3.75;;;1.80;99.90;;;;;;5010534;28;20228;-87
2021/01/19 06:41:02;;;;;;;7.25;4.47;;;1.80;99.90;;;;;;5010390;28;20202;-87
2021/01/19 06:43:35;;;;;;;4.47;3.47;;;1.90;99.90;;;;;;5008490;28;20276;-87
2021/01/19 06:46:07;;;;;;;4.50;3.85;;;1.80;99.90;;;;;;5006587;28;20662;-86
2021/01/19 06:48:34;;;;;;;7.93;3.85;;;1.80;99.90;;;;;;5012210;28;20732;-86
2021/01/19 06:51:02;;;;;;;5.60;3.25;;;1.80;99.90;;;;;;5013792;28;20288;-87
2021/01/19 06:53:36;;;;;;;4.05;3.45;;;1.80;99.90;;;;;;5012030;28;20316;-87
2021/01/19 06:56:11;;;;;;;5.30;3.95;;;1.70;99.90;;;;;;5007806;28;20212;-87
2021/01/19 06:58:48;;;;;;;4.50;4.10;;;1.70;99.90;;;;;;5014118;28;20288;-87
2021/01/19 07:01:15;;;;;;;4.53;3.75;;;1.70;99.90;;;;;;5011835;28;20689;-86
2021/01/19 07:03:43;;;;;;;5.43;4.07;;;1.70;99.90;;;;;;5013572;28;20192;-87
2021/01/19 07:06:10;;;;;;;6.90;3.65;;;1.60;99.90;;;;;;5013680;28;20200;-86
2021/01/19 07:09:06;;;;;;;7.88;3.58;;;1.60;99.90;;;;;;5013962;28;20692;-87
2021/01/19 07:11:59;;;;;;;11.88;6.03;;;1.50;99.90;;;;;;5007827;28;20274;-86
2021/01/19 07:14:49;;;;;;;10.10;5.28;;;1.60;99.90;;;;;;5017041;28;20221;-86
2021/01/19 07:17:18;;;;;;;9.38;4.22;;;1.50;99.90;;;;;;5010389;28;20211;-87
2021/01/19 07:19:49;;;;;;;7.00;4.00;;;1.50;99.90;;;;;;5012109;28;20197;-87
2021/01/19 07:22:49;;;;;;;7.80;3.60;;;1.50;99.90;;;;;;5011812;28;20212;-87
2021/01/19 07:25:16;;;;;;;6.88;3.33;;;1.50;99.90;;;;;;5005991;28;20267;-86
2021/01/19 07:27:42;;;;;;;4.32;2.97;;;1.50;99.90;;;;;;5002184;28;20275;-86
2021/01/19 07:30:11;;;;;;;3.13;2.83;;;1.50;99.90;;;;;;5012923;28;20195;-86
2021/01/19 07:32:39;;;;;;;7.15;3.58;;;1.50;99.90;;;;;;5010677;28;20293;-85
2021/01/19 07:35:06;;;;;;;4.20;2.88;;;1.50;99.90;;;;;;5012505;28;20217;-86
2021/01/19 07:37:34;;;;;;;4.45;3.40;;;1.60;99.90;;;;;;5012368;28;20673;-86
2021/01/19 07:40:01;;;;;;;10.07;3.72;;;1.60;99.90;;;;;;5012907;28;20404;-87
2021/01/19 07:42:32;;;;;;;10.35;4.85;;;1.70;99.90;;;;;;5011240;28;20201;-86
2021/01/19 07:44:59;;;;;;;5.35;3.45;;;1.70;99.90;;;;;;5007493;28;20264;-87
2021/01/19 07:47:37;;;;;;;3.83;3.40;;;1.70;99.90;;;;;;5010313;28;20196;-87
2021/01/19 07:50:06;;;;;;;7.50;3.45;;;1.80;99.90;;;;;;5010940;28;20250;-86
2021/01/19 07:52:37;;;;;;;6.00;4.22;;;1.90;99.90;;;;;;5012130;28;20196;-88
2021/01/19 07:55:17;;;;;;;6.93;3.45;;;1.90;99.90;;;;;;5011949;28;20257;-88
2021/01/19 07:57:44;;;;;;;10.80;3.13;;;2.00;99.90;;;;;;5010648;28;20202;-88
2021/01/19 08:00:11;;;;;;;3.50;3.20;;;2.00;99.90;;;;;;5010292;28;20200;-88
2021/01/19 08:02:38;;;;;;;5.03;3.33;;;2.10;99.90;;;;;;5010382;28;20196;-88
2021/01/19 08:05:06;;;;;;;10.50;3.80;;;2.20;99.90;;;;;;5005409;28;20297;-89
2021/01/19 08:07:40;;;;;;;7.20;3.38;;;2.30;99.90;;;;;;5011787;28;20692;-88
2021/01/19 08:10:18;;;;;;;5.15;3.22;;;2.30;99.90;;;;;;5010090;28;20666;-87
2021/01/19 08:12:47;;;;;;;6.10;2.85;;;2.50;99.90;;;;;;5011081;28;20213;-87
2021/01/19 08:15:19;;;;;;;5.20;2.75;;;2.60;99.90;;;;;;5011708;28;20217;-87
2021/01/19 08:17:50;;;;;;;5.70;2.65;;;2.70;99.90;;;;;;5010651;28;20296;-88
2021/01/19 08:20:24;;;;;;;3.40;3.10;;;2.90;99.90;;;;;;5008818;28;20332;-88
2021/01/19 08:22:50;;;;;;;5.17;2.70;;;2.90;99.90;;;;;;5009818;28;20439;-87
2021/01/19 08:25:23;;;;;;;6.40;2.30;;;3.00;99.90;;;;;;5011564;28;20458;-88
2021/01/19 08:27:50;;;;;;;4.70;3.13;;;3.10;99.90;;;;;;5011764;28;20202;-86
2021/01/19 08:30:24;;;;;;;5.65;3.00;;;3.20;99.90;;;;;;5011748;28;20263;-85
2021/01/19 08:32:51;;;;;;;9.05;3.72;;;3.30;99.90;;;;;;5009652;28;20216;-88
2021/01/19 08:35:18;;;;;;;6.90;3.10;;;3.30;99.90;;;;;;5011298;28;20606;-89
2021/01/19 08:37:50;;;;;;;8.03;2.83;;;3.40;99.90;;;;;;5012015;28;21015;-88
2021/01/19 08:40:24;;;;;;;4.47;3.13;;;3.40;99.90;;;;;;5006847;28;20461;-89
2021/01/19 08:42:50;;;;;;;4.90;3.10;;;3.50;99.90;;;;;;5010720;28;20206;-89
2021/01/19 08:45:27;;;;;;;7.30;3.40;;;3.60;99.90;;;;;;5011516;28;20882;-89
2021/01/19 08:47:56;;;;;;;8.37;5.97;;;3.70;99.90;;;;;;5007764;28;20444;-89
2021/01/19 08:50:24;;;;;;;4.17;3.77;;;3.80;99.90;;;;;;5011721;28;20451;-84
2021/01/19 08:52:51;;;;;;;10.50;4.17;;;3.90;99.90;;;;;;5010890;28;20952;-84
2021/01/19 08:55:21;;;;;;;6.33;3.77;;;3.90;99.90;;;;;;5009477;28;20561;-85
2021/01/19 08:57:53;;;;;;;6.60;3.87;;;3.90;99.90;;;;;;5008399;28;20809;-85
2021/01/19 09:00:26;;;;;;;6.70;3.30;;;3.90;99.90;;;;;;5009299;28;20464;-85
2021/01/19 09:02:53;;;;;;;13.27;4.13;;;4.00;99.90;;;;;;5007856;28;20453;-86
2021/01/19 09:05:25;;;;;;;16.63;4.10;;;4.00;99.90;;;;;;5010912;28;20453;-85
2021/01/19 09:07:51;;;;;;;5.90;3.73;;;4.20;99.90;;;;;;5011148;28;20451;-85
2021/01/19 09:10:21;;;;;;;8.33;4.40;;;4.30;99.90;;;;;;5010343;28;20431;-85
2021/01/19 09:12:48;;;;;;;14.50;4.63;;;4.30;99.70;;;;;;5009772;28;20450;-84
2021/01/19 09:15:15;;;;;;;5.93;4.57;;;4.30;99.70;;;;;;5008811;28;20489;-85
2021/01/19 09:17:49;;;;;;;9.30;4.73;;;4.20;99.80;;;;;;5011135;28;20862;-85
2021/01/19 09:20:17;;;;;;;4.63;4.17;;;4.00;99.60;;;;;;5011231;28;20504;-89
2021/01/19 09:22:44;;;;;;;10.00;4.83;;;4.00;99.80;;;;;;5010878;28;20541;-88
2021/01/19 09:25:11;;;;;;;10.20;4.47;;;3.90;99.90;;;;;;5010360;28;20475;-88
2021/01/19 09:27:38;;;;;;;9.40;4.30;;;3.90;99.90;;;;;;5010373;28;20457;-88
2021/01/19 09:30:07;;;;;;;12.93;6.10;;;3.80;99.90;;;;;;5010756;28;21004;-88
2021/01/19 09:32:37;;;;;;;10.83;5.57;;;3.90;99.90;;;;;;5011358;28;20442;-88
2021/01/19 09:35:04;;;;;;;12.90;4.93;;;3.80;99.90;;;;;;5010196;28;20539;-89
2021/01/19 09:37:31;;;;;;;11.00;6.57;;;3.70;99.90;;;;;;5010755;28;20529;-89
2021/01/19 09:39:58;;;;;;;6.20;5.40;;;3.70;99.90;;;;;;5008211;28;20445;-87
2021/01/19 09:42:24;;;;;;;12.60;5.00;;;3.60;99.90;;;;;;5010415;28;20456;-88
2021/01/19 09:44:51;;;;;;;10.43;5.10;;;3.70;99.90;;;;;;5010157;28;20458;-88
2021/01/19 09:47:23;;;;;;;9.93;5.23;;;3.70;99.90;;;;;;5010301;28;20795;-88
2021/01/19 09:49:52;;;;;;;8.83;6.43;;;3.60;99.90;;;;;;5009903;28;20453;-85
2021/01/19 09:52:19;;;;;;;9.10;6.00;;;3.50;99.90;;;;;;5008608;28;20532;-85
2021/01/19 09:54:46;;;;;;;10.00;4.40;;;3.60;99.90;;;;;;5005717;28;20673;-89
2021/01/19 09:57:13;;;;;;;7.37;5.73;;;3.50;99.90;;;;;;5010622;28;20451;-90
2021/01/19 09:59:40;;;;;;;13.50;5.83;;;3.40;99.90;;;;;;5010409;28;20476;-91
2021/01/19 10:02:07;;;;;;;9.07;6.13;;;3.40;99.90;;;;;;5009871;28;20524;-90
2021/01/19 10:04:33;;;;;;;9.73;5.90;;;3.50;99.90;;;;;;5010176;28;20458;-89
2021/01/19 10:07:04;;;;;;;11.90;6.57;;;3.50;99.90;;;;;;5010666;28;20453;-88
2021/01/19 10:09:31;;;;;;;17.97;8.17;;;3.60;99.90;;;;;;5003285;28;21249;-93
2021/01/19 10:11:59;;;;;;;12.67;5.90;;;3.60;99.90;;;;;;5014035;28;20446;-87
2021/01/19 10:14:34;;;;;;;9.97;6.27;;;3.70;99.90;;;;;;5010897;28;20990;-87
2021/01/19 10:17:01;;;;;;;10.60;6.10;;;3.80;99.90;;;;;;5010814;28;20474;-88
2021/01/19 10:19:28;;;;;;;11.70;5.97;;;3.80;99.90;;;;;;5010779;28;20881;-87
2021/01/19 10:21:56;;;;;;;8.23;6.50;;;3.80;99.90;;;;;;5011459;28;20457;-86
2021/01/19 10:24:24;;;;;;;17.40;7.97;;;3.90;99.90;;;;;;5013897;28;20501;-87
2021/01/19 10:27:11;;;;;;;13.40;7.80;;;4.00;99.90;;;;;;5013593;28;20449;-86
2021/01/19 10:29:40;;;;;;;10.00;7.10;;;4.00;99.90;;;;;;5007952;28;20450;-86
2021/01/19 10:32:11;;;;;;;18.20;7.27;;;4.00;99.90;;;;;;5012849;28;20438;-86
2021/01/19 10:34:38;;;;;;;19.23;8.07;;;4.00;99.90;;;;;;5012838;28;20493;-87
2021/01/19 10:37:04;;;;;;;7.57;5.83;;;3.90;99.90;;;;;;5013229;28;20452;-86
2021/01/19 10:39:31;;;;;;;15.10;6.87;;;4.10;99.90;;;;;;5014162;28;20427;-86
2021/01/19 10:41:58;;;;;;;13.80;7.33;;;4.20;99.90;;;;;;5012102;28;20927;-86
2021/01/19 10:44:25;;;;;;;12.30;7.63;;;4.10;99.90;;;;;;5012259;28;20532;-86
2021/01/19 10:46:59;;;;;;;11.50;8.00;;;4.20;99.90;;;;;;5014180;28;20445;-86
2021/01/19 10:49:30;;;;;;;8.10;6.17;;;4.20;99.90;;;;;;5014029;28;20787;-86
2021/01/19 10:51:57;;;;;;;12.67;7.10;;;4.20;99.90;;;;;;5012985;28;20452;-85
2021/01/19 10:54:24;;;;;;;16.97;7.87;;;4.20;99.90;;;;;;5008740;28;20478;-86
2021/01/19 10:57:01;;;;;;;9.00;5.93;;;4.30;99.90;;;;;;5011602;28;20437;-86
2021/01/19 10:59:27;;;;;;;11.00;6.63;;;4.20;99.90;;;;;;5010898;28;20516;-87
2021/01/19 11:01:53;;;;;;;9.27;6.93;;;4.30;99.90;;;;;;5012869;28;20883;-85
2021/01/19 11:04:20;;;;;;;10.90;6.90;;;4.30;99.90;;;;;;5012829;28;20462;-86
2021/01/19 11:06:47;;;;;;;11.00;6.80;;;4.40;99.90;;;;;;5012790;28;20859;-86
2021/01/19 11:09:14;;;;;;;10.70;5.50;;;4.40;99.90;;;;;;5013154;28;20453;-86
2021/01/19 11:11:40;;;;;;;14.07;6.33;;;4.40;99.90;;;;;;5012864;28;20462;-86
2021/01/19 11:14:07;;;;;;;17.03;6.20;;;4.40;99.90;;;;;;5009459;28;20511;-86
2021/01/19 11:16:35;;;;;;;9.87;4.80;;;4.50;99.90;;;;;;5012442;28;20446;-87
2021/01/19 11:19:02;;;;;;;12.00;7.57;;;4.50;99.90;;;;;;5012475;28;20446;-86
2021/01/19 11:21:31;;;;;;;12.70;6.27;;;4.50;99.90;;;;;;5011732;28;20450;-86
2021/01/19 11:23:58;;;;;;;13.23;6.73;;;4.50;99.90;;;;;;5010417;28;20586;-86
2021/01/19 11:26:24;;;;;;;10.83;6.60;;;4.50;99.90;;;;;;5012418;28;20436;-87
2021/01/19 11:28:50;;;;;;;6.50;5.03;;;4.60;99.90;;;;;;5012454;28;20446;-87
2021/01/19 11:31:24;;;;;;;12.90;5.97;;;4.60;99.90;;;;;;5012644;28;20438;-86
2021/01/19 11:49:55;;;;;;;5.83;4.40;;;5.00;99.90;;;;;;5032014;28;20495;-90
2021/01/19 11:52:22;;;;;;;8.20;4.77;;;5.00;99.90;;;;;;5030563;28;20960;-88
2021/01/19 11:54:48;;;;;;;10.23;5.57;;;5.10;99.90;;;;;;5030767;28;20579;-88
2021/01/19 11:57:15;;;;;;;9.63;5.20;;;5.20;99.90;;;;;;5029116;28;20442;-89
2021/01/19 11:59:41;;;;;;;8.00;4.70;;;5.20;99.90;;;;;;5031053;28;20945;-88
2021/01/19 12:02:08;;;;;;;8.80;5.93;;;5.30;99.90;;;;;;5030039;28;20987;-89
2021/01/19 12:04:34;;;;;;;6.87;4.23;;;5.30;99.90;;;;;;5031406;28;20841;-89
2021/01/19 12:07:03;;;;;;;6.97;4.53;;;5.20;99.60;;;;;;5032363;28;20453;-89
2021/01/19 12:09:29;;;;;;;6.43;4.63;;;5.20;99.90;;;;;;5032749;28;20476;-89
2021/01/19 12:11:55;;;;;;;8.50;4.27;;;5.20;99.90;;;;;;5032193;28;20807;-87
2021/01/19 12:14:22;;;;;;;5.60;3.23;;;5.20;99.90;;;;;;5031558;28;20489;-88
2021/01/19 12:16:52;;;;;;;4.77;3.80;;;5.20;99.90;;;;;;5032007;28;20450;-88
2021/01/19 12:19:18;;;;;;;4.93;4.20;;;5.10;99.90;;;;;;5032175;28;20471;-89
2021/01/19 12:21:47;;;;;;;10.33;4.13;;;5.20;99.90;;;;;;5032399;28;20822;-89
2021/01/19 12:24:15;;;;;;;7.43;3.90;;;5.20;99.90;;;;;;5030742;28;20445;-89
2021/01/19 12:26:44;;;;;;;5.30;3.03;;;5.30;99.90;;;;;;5031853;28;20449;-88
2021/01/19 12:29:10;;;;;;;8.50;4.20;;;5.40;99.90;;;;;;5032367;28;20449;-89
2021/01/19 12:31:36;;;;;;;8.47;4.90;;;5.50;99.90;;;;;;5032946;28;20437;-88
2021/01/19 12:34:02;;;;;;;6.97;4.00;;;5.50;99.80;;;;;;5031508;28;20513;-88
2021/01/19 12:36:32;;;;;;;10.10;4.63;;;5.60;99.90;;;;;;5032178;28;20433;-88
2021/01/19 12:38:58;;;;;;;6.37;3.60;;;5.70;99.50;;;;;;5031927;28;20452;-88
2021/01/19 12:41:26;;;;;;;12.83;5.17;;;5.80;99.70;;;;;;5032271;28;20448;-88
2021/01/19 12:43:52;;;;;;;11.97;4.53;;;5.80;99.70;;;;;;5031915;28;20457;-88
2021/01/19 12:46:19;;;;;;;11.20;3.13;;;5.90;99.50;;;;;;5031643;28;20866;-88
2021/01/19 12:48:45;;;;;;;4.33;3.60;;;5.90;99.20;;;;;;5031988;28;20506;-88
2021/01/19 12:51:14;;;;;;;6.57;3.13;;;5.90;99.00;;;;;;5031968;28;20456;-87
2021/01/19 12:53:40;;;;;;;6.00;3.33;;;5.80;99.50;;;;;;5031788;28;20441;-88
2021/01/19 12:56:10;;;;;;;6.10;3.40;;;5.80;99.90;;;;;;5031585;28;20477;-87
2021/01/19 12:58:37;;;;;;;3.93;3.27;;;5.80;99.80;;;;;;5031861;28;20445;-88
2021/01/19 13:01:04;;;;;;;9.27;3.00;;;5.90;99.90;;;;;;5031414;28;20453;-88
2021/01/19 13:03:30;;;;;;;4.03;3.17;;;5.90;99.90;;;;;;5031238;28;20461;-87
2021/01/19 13:05:56;;;;;;;3.77;2.77;;;5.90;99.80;;;;;;5011562;28;20458;-87
2021/01/19 13:08:22;;;;;;;4.57;2.90;;;5.90;99.90;;;;;;5011469;28;20450;-88
2021/01/19 13:10:49;;;;;;;4.83;2.80;;;5.90;99.90;;;;;;5011939;28;20896;-87
2021/01/19 13:13:15;;;;;;;6.60;3.27;;;6.00;99.90;;;;;;5012160;28;20434;-88
2021/01/19 13:15:43;;;;;;;4.00;2.70;;;6.00;99.90;;;;;;5030960;28;20519;-88
2021/01/19 13:18:10;;;;;;;10.40;3.47;;;6.10;99.90;;;;;;5031470;28;20449;-87
2021/01/19 13:20:36;;;;;;;3.93;2.80;;;6.10;99.90;;;;;;5031211;28;20508;-86